Time;durP1;ratioP1;P1;durP2;ratioP2;P2;SDS_P1;SDS_P2;PMS_P1;PMS_P2;Temp;Humidity;BMP_temperature;BMP_pressure;BME280_temperature;BME280_humidity;BME280_pressure;Samples;Min_cycle;Max_cycle;Signal;HPM_P1;HPM_P2
2024/01/30 00:00:44;;;;;;;146.50;66.30;;;;;;;-128.00;-1.00;-1.00;103272;1254;1004359;-78
2024/01/30 00:03:30;;;;;;;141.30;65.00;;;;;;;-128.00;-1.00;-1.00;103176;1257;1060523;-78
2024/01/30 00:05:57;;;;;;;119.30;58.30;;;;;;;-128.00;-1.00;-1.00;103162;1254;1004114;-78
2024/01/30 00:08:23;;;;;;;133.90;60.30;;;;;;;-128.00;-1.00;-1.00;103219;1254;1004002;-79
2024/01/30 00:10:50;;;;;;;129.00;57.50;;;;;;;-128.00;-1.00;-1.00;103347;1256;1004200;-79
2024/01/30 00:13:19;;;;;;;117.10;54.60;;;;;;;-128.00;-1.00;-1.00;103350;1254;1003950;-79
2024/01/30 00:15:45;;;;;;;109.00;49.20;;;;;;;-128.00;-1.00;-1.00;103219;1253;1060829;-78
2024/01/30 00:18:12;;;;;;;112.10;51.30;;;;;;;-128.00;-1.00;-1.00;103230;1254;1005547;-78
2024/01/30 00:20:39;;;;;;;98.00;45.60;;;;;;;-128.00;-1.00;-1.00;103311;1254;1004361;-78
2024/01/30 00:23:05;;;;;;;117.00;50.40;;;;;;;-128.00;-1.00;-1.00;103229;1257;1004959;-79
2024/01/30 00:25:33;;;;;;;112.80;51.90;;;;;;;-128.00;-1.00;-1.00;103241;1254;1007689;-78
2024/01/30 00:28:00;;;;;;;102.90;50.70;;;;;;;-128.00;-1.00;-1.00;103194;1254;1004696;-78
2024/01/30 00:30:26;;;;;;;103.10;48.90;;;;;;;-128.00;-1.00;-1.00;103198;1254;1006378;-78
2024/01/30 00:32:53;;;;;;;107.80;50.40;;;;;;;-128.00;-1.00;-1.00;103194;1254;1004086;-78
2024/01/30 00:35:22;;;;;;;112.60;52.10;;;;;;;-128.00;-1.00;-1.00;103235;1254;1005707;-78
2024/01/30 00:37:48;;;;;;;112.60;58.00;;;;;;;-128.00;-1.00;-1.00;103159;1257;1004326;-78
2024/01/30 00:40:15;;;;;;;114.00;51.50;;;;;;;-128.00;-1.00;-1.00;103176;1254;1004768;-79
2024/01/30 00:42:42;;;;;;;114.00;53.50;;;;;;;-128.00;-1.00;-1.00;103153;1254;1004284;-78
2024/01/30 00:45:16;;;;;;;111.80;50.30;;;;;;;-128.00;-1.00;-1.00;103176;1254;1004463;-78
2024/01/30 00:47:42;;;;;;;101.10;47.80;;;;;;;-128.00;-1.00;-1.00;103188;1257;1063441;-78
2024/01/30 00:50:09;;;;;;;100.60;48.70;;;;;;;-128.00;-1.00;-1.00;103218;1253;1004123;-78
2024/01/30 00:52:36;;;;;;;109.90;48.50;;;;;;;-128.00;-1.00;-1.00;103236;1253;1004446;-78
2024/01/30 00:55:03;;;;;;;110.80;49.40;;;;;;;-128.00;-1.00;-1.00;103172;1254;1003504;-78
2024/01/30 00:57:30;;;;;;;97.90;47.20;;;;;;;-128.00;-1.00;-1.00;103198;1253;1005108;-78
2024/01/30 00:59:57;;;;;;;105.90;51.00;;;;;;;-128.00;-1.00;-1.00;105173;1253;1004793;-78
2024/01/30 01:02:23;;;;;;;102.60;49.40;;;;;;;-128.00;-1.00;-1.00;105614;1254;1004225;-78
2024/01/30 01:04:50;;;;;;;107.40;52.90;;;;;;;-128.00;-1.00;-1.00;105494;1253;1004241;-78
2024/01/30 01:07:16;;;;;;;106.50;49.80;;;;;;;-128.00;-1.00;-1.00;103139;1253;1005368;-78
2024/01/30 01:09:43;;;;;;;115.70;53.90;;;;;;;-128.00;-1.00;-1.00;103940;1254;1004418;-78
2024/01/30 01:12:10;;;;;;;107.60;51.80;;;;;;;-128.00;-1.00;-1.00;103120;1254;1004462;-78
2024/01/30 01:14:36;;;;;;;104.30;53.00;;;;;;;-128.00;-1.00;-1.00;104007;1254;1004427;-78
2024/01/30 01:17:03;;;;;;;90.00;44.40;;;;;;;-128.00;-1.00;-1.00;103121;1257;1003977;-78
2024/01/30 01:19:29;;;;;;;100.70;43.50;;;;;;;-128.00;-1.00;-1.00;103131;1254;1005483;-78
2024/01/30 01:21:56;;;;;;;87.30;41.70;;;;;;;-128.00;-1.00;-1.00;103209;1254;1004497;-78
2024/01/30 01:24:23;;;;;;;72.50;36.50;;;;;;;-128.00;-1.00;-1.00;103253;1253;1005151;-78
2024/01/30 01:26:49;;;;;;;80.50;40.70;;;;;;;-128.00;-1.00;-1.00;103215;1254;1007400;-78
2024/01/30 01:29:16;;;;;;;91.20;41.90;;;;;;;-128.00;-1.00;-1.00;103224;1254;1004114;-79
2024/01/30 01:31:46;;;;;;;92.10;40.30;;;;;;;-128.00;-1.00;-1.00;103202;1253;1005288;-78
2024/01/30 01:34:13;;;;;;;78.70;43.90;;;;;;;-128.00;-1.00;-1.00;103241;1253;1049494;-79
2024/01/30 01:36:39;;;;;;;80.90;39.70;;;;;;;-128.00;-1.00;-1.00;103174;1257;1004083;-78
2024/01/30 01:39:06;;;;;;;82.20;35.80;;;;;;;-128.00;-1.00;-1.00;103248;1254;1004653;-78
2024/01/30 01:41:33;;;;;;;71.90;37.20;;;;;;;-128.00;-1.00;-1.00;103180;1254;1005414;-78
2024/01/30 01:43:59;;;;;;;71.10;34.30;;;;;;;-128.00;-1.00;-1.00;103136;1253;1004399;-78
2024/01/30 01:46:26;;;;;;;58.30;30.30;;;;;;;-128.00;-1.00;-1.00;103210;1254;1003926;-78
2024/01/30 01:48:54;;;;;;;54.80;28.50;;;;;;;-128.00;-1.00;-1.00;103161;1254;1004981;-78
2024/01/30 01:51:21;;;;;;;56.10;25.10;;;;;;;-128.00;-1.00;-1.00;103056;1253;1004894;-79
2024/01/30 01:53:48;;;;;;;67.60;34.00;;;;;;;-128.00;-1.00;-1.00;103188;1254;1004850;-79
2024/01/30 01:56:14;;;;;;;72.80;34.60;;;;;;;-128.00;-1.00;-1.00;103211;1253;1004468;-78
2024/01/30 01:58:41;;;;;;;77.00;34.70;;;;;;;-128.00;-1.00;-1.00;103213;1253;1004105;-78
2024/01/30 02:01:08;;;;;;;77.50;36.40;;;;;;;-128.00;-1.00;-1.00;103178;1254;1004666;-78
2024/01/30 02:03:34;;;;;;;68.40;33.80;;;;;;;-128.00;-1.00;-1.00;103182;1257;1004496;-78
2024/01/30 02:06:02;;;;;;;74.60;36.10;;;;;;;-128.00;-1.00;-1.00;103205;1253;1004573;-78
2024/01/30 02:08:28;;;;;;;65.80;30.10;;;;;;;-128.00;-1.00;-1.00;103225;1253;1004376;-78
2024/01/30 02:10:55;;;;;;;71.90;35.20;;;;;;;-128.00;-1.00;-1.00;103223;1253;1003989;-78
2024/01/30 02:13:22;;;;;;;80.20;35.00;;;;;;;-128.00;-1.00;-1.00;103967;1253;1004553;-78
2024/01/30 02:15:51;;;;;;;74.50;33.80;;;;;;;-128.00;-1.00;-1.00;105512;1254;1005035;-78
2024/01/30 02:18:19;;;;;;;64.20;32.40;;;;;;;-128.00;-1.00;-1.00;105284;1254;1060229;-78
2024/01/30 02:20:46;;;;;;;66.70;33.00;;;;;;;-128.00;-1.00;-1.00;103182;1254;1004237;-78
2024/01/30 02:23:12;;;;;;;73.70;33.70;;;;;;;-128.00;-1.00;-1.00;103183;1254;1003453;-78
2024/01/30 02:25:46;;;;;;;79.90;39.20;;;;;;;-128.00;-1.00;-1.00;103211;1257;1003887;-79
2024/01/30 02:28:12;;;;;;;71.20;34.40;;;;;;;-128.00;-1.00;-1.00;103231;1254;1060018;-79
2024/01/30 02:30:40;;;;;;;78.40;36.80;;;;;;;-128.00;-1.00;-1.00;103275;1253;1004018;-78
2024/01/30 02:33:06;;;;;;;83.60;37.70;;;;;;;-128.00;-1.00;-1.00;103235;1253;1004239;-78
2024/01/30 02:35:34;;;;;;;84.00;36.80;;;;;;;-128.00;-1.00;-1.00;104563;1252;1003801;-78
2024/01/30 02:38:00;;;;;;;75.90;35.30;;;;;;;-128.00;-1.00;-1.00;105602;1253;1003660;-79
2024/01/30 02:40:27;;;;;;;70.10;35.20;;;;;;;-128.00;-1.00;-1.00;105598;1252;1004206;-78
2024/01/30 02:42:53;;;;;;;68.70;33.40;;;;;;;-128.00;-1.00;-1.00;105596;1252;1004678;-79
2024/01/30 02:45:20;;;;;;;72.80;35.10;;;;;;;-128.00;-1.00;-1.00;105564;1253;1003584;-78
2024/01/30 02:47:46;;;;;;;65.60;33.40;;;;;;;-128.00;-1.00;-1.00;105628;1253;1004859;-78
2024/01/30 02:50:14;;;;;;;70.90;32.40;;;;;;;-128.00;-1.00;-1.00;104130;1253;1004764;-78
2024/01/30 02:52:43;;;;;;;65.10;32.40;;;;;;;-128.00;-1.00;-1.00;103243;1253;1004286;-78
2024/01/30 02:55:10;;;;;;;78.90;34.70;;;;;;;-128.00;-1.00;-1.00;103238;1253;1059287;-78
2024/01/30 02:57:38;;;;;;;64.00;30.60;;;;;;;-128.00;-1.00;-1.00;103210;1255;1004873;-78
2024/01/30 03:00:06;;;;;;;67.80;31.80;;;;;;;-128.00;-1.00;-1.00;103238;1253;1004449;-78
2024/01/30 03:02:32;;;;;;;62.50;31.20;;;;;;;-128.00;-1.00;-1.00;105582;1253;1003764;-78
2024/01/30 03:04:59;;;;;;;59.60;27.60;;;;;;;-128.00;-1.00;-1.00;105580;1252;1004199;-78
2024/01/30 03:07:26;;;;;;;52.50;26.40;;;;;;;-128.00;-1.00;-1.00;103849;1253;1004006;-78
2024/01/30 03:09:55;;;;;;;48.20;23.50;;;;;;;-128.00;-1.00;-1.00;103121;1252;1003830;-78
2024/01/30 03:12:22;;;;;;;46.80;25.60;;;;;;;-128.00;-1.00;-1.00;105593;1252;1046429;-78
2024/01/30 03:14:49;;;;;;;47.00;20.50;;;;;;;-128.00;-1.00;-1.00;105582;1253;1004537;-79
2024/01/30 03:17:15;;;;;;;45.50;22.70;;;;;;;-128.00;-1.00;-1.00;105600;1253;1004481;-78
2024/01/30 03:19:42;;;;;;;48.40;23.50;;;;;;;-128.00;-1.00;-1.00;105538;1252;1004537;-78
2024/01/30 03:22:08;;;;;;;53.00;24.30;;;;;;;-128.00;-1.00;-1.00;105546;1252;1004872;-78
2024/01/30 03:24:35;;;;;;;61.00;28.90;;;;;;;-128.00;-1.00;-1.00;105580;1252;1004128;-78
2024/01/30 03:27:02;;;;;;;61.00;30.20;;;;;;;-128.00;-1.00;-1.00;105576;1253;1004733;-78
2024/01/30 03:29:28;;;;;;;53.40;26.80;;;;;;;-128.00;-1.00;-1.00;103383;1253;1003849;-78
2024/01/30 03:31:55;;;;;;;60.50;33.00;;;;;;;-128.00;-1.00;-1.00;103203;1253;1005314;-78
2024/01/30 03:34:21;;;;;;;73.20;32.80;;;;;;;-128.00;-1.00;-1.00;103228;1253;1005343;-78
2024/01/30 03:36:48;;;;;;;66.90;32.80;;;;;;;-128.00;-1.00;-1.00;103231;1253;1004604;-78
2024/01/30 03:39:14;;;;;;;63.00;31.40;;;;;;;-128.00;-1.00;-1.00;103254;1253;1005276;-78
2024/01/30 03:41:44;;;;;;;62.20;30.60;;;;;;;-128.00;-1.00;-1.00;103232;1254;1003889;-78
2024/01/30 03:44:11;;;;;;;65.80;32.80;;;;;;;-128.00;-1.00;-1.00;103226;1253;1059687;-78
2024/01/30 03:46:37;;;;;;;55.40;29.20;;;;;;;-128.00;-1.00;-1.00;104586;1257;1004905;-78
2024/01/30 03:49:04;;;;;;;52.20;28.10;;;;;;;-128.00;-1.00;-1.00;105582;1253;1004495;-78
2024/01/30 03:51:30;;;;;;;60.00;28.70;;;;;;;-128.00;-1.00;-1.00;105585;1253;1006069;-78
2024/01/30 03:53:57;;;;;;;49.00;24.40;;;;;;;-128.00;-1.00;-1.00;105570;1253;1003763;-78
2024/01/30 03:56:25;;;;;;;50.90;27.10;;;;;;;-128.00;-1.00;-1.00;104560;1253;1004195;-78
2024/01/30 03:58:52;;;;;;;58.10;26.20;;;;;;;-128.00;-1.00;-1.00;103155;1253;1048682;-78
2024/01/30 04:01:19;;;;;;;43.30;22.10;;;;;;;-128.00;-1.00;-1.00;104253;1253;1005383;-78
2024/01/30 04:03:45;;;;;;;53.70;26.50;;;;;;;-128.00;-1.00;-1.00;103602;1253;1003907;-78
2024/01/30 04:06:12;;;;;;;50.60;24.50;;;;;;;-128.00;-1.00;-1.00;103251;1253;1004333;-79
2024/01/30 04:08:38;;;;;;;46.10;21.80;;;;;;;-128.00;-1.00;-1.00;103193;1253;1004567;-77
2024/01/30 04:11:05;;;;;;;49.90;24.30;;;;;;;-128.00;-1.00;-1.00;104035;1253;1004897;-78
2024/01/30 04:13:32;;;;;;;55.90;26.50;;;;;;;-128.00;-1.00;-1.00;105579;1253;1003917;-78
2024/01/30 04:16:01;;;;;;;56.80;27.60;;;;;;;-128.00;-1.00;-1.00;105581;1253;1003821;-78
2024/01/30 04:18:28;;;;;;;32.30;17.60;;;;;;;-128.00;-1.00;-1.00;105564;1253;1004982;-78
2024/01/30 04:20:55;;;;;;;59.20;29.20;;;;;;;-128.00;-1.00;-1.00;105370;1253;1003772;-78
2024/01/30 04:23:22;;;;;;;64.70;30.60;;;;;;;-128.00;-1.00;-1.00;105538;1253;1003897;-78
2024/01/30 04:25:48;;;;;;;58.20;29.00;;;;;;;-128.00;-1.00;-1.00;105601;1253;1003941;-79
2024/01/30 04:28:15;;;;;;;55.40;27.70;;;;;;;-128.00;-1.00;-1.00;105574;1253;1005039;-78
2024/01/30 04:30:42;;;;;;;54.90;27.30;;;;;;;-128.00;-1.00;-1.00;105578;1253;1004248;-78
2024/01/30 04:33:10;;;;;;;55.50;27.40;;;;;;;-128.00;-1.00;-1.00;105584;1253;1003562;-78
2024/01/30 04:35:36;;;;;;;58.80;29.00;;;;;;;-128.00;-1.00;-1.00;105180;1253;1005219;-78
2024/01/30 04:38:03;;;;;;;48.10;26.90;;;;;;;-128.00;-1.00;-1.00;105602;1253;1004473;-78
2024/01/30 04:40:29;;;;;;;56.20;27.70;;;;;;;-128.00;-1.00;-1.00;103293;1253;1003855;-78
2024/01/30 04:42:56;;;;;;;51.30;26.20;;;;;;;-128.00;-1.00;-1.00;105612;1253;1005060;-78
2024/01/30 04:45:23;;;;;;;46.60;25.00;;;;;;;-128.00;-1.00;-1.00;105574;1253;1004994;-78
2024/01/30 04:47:49;;;;;;;55.90;27.00;;;;;;;-128.00;-1.00;-1.00;105610;1253;1005194;-78
2024/01/30 04:50:16;;;;;;;59.50;28.00;;;;;;;-128.00;-1.00;-1.00;105671;1253;1004274;-78
2024/01/30 04:52:42;;;;;;;68.40;31.10;;;;;;;-128.00;-1.00;-1.00;104294;1253;1004927;-78
2024/01/30 04:55:09;;;;;;;60.40;27.70;;;;;;;-128.00;-1.00;-1.00;103468;1253;1004653;-78
2024/01/30 04:57:36;;;;;;;51.70;25.30;;;;;;;-128.00;-1.00;-1.00;103420;1253;1006093;-78
2024/01/30 05:00:03;;;;;;;54.30;28.50;;;;;;;-128.00;-1.00;-1.00;103276;1253;1005041;-78
2024/01/30 05:02:30;;;;;;;61.80;29.60;;;;;;;-128.00;-1.00;-1.00;105133;1254;1004317;-78
2024/01/30 05:04:57;;;;;;;55.90;27.80;;;;;;;-128.00;-1.00;-1.00;103205;1253;1004442;-78
2024/01/30 05:07:25;;;;;;;57.60;26.10;;;;;;;-128.00;-1.00;-1.00;105381;1253;1005565;-78
2024/01/30 05:09:51;;;;;;;44.60;22.90;;;;;;;-128.00;-1.00;-1.00;105587;1253;1003797;-79
2024/01/30 05:12:18;;;;;;;46.70;22.20;;;;;;;-128.00;-1.00;-1.00;105552;1253;1003502;-78
2024/01/30 05:14:44;;;;;;;50.80;24.80;;;;;;;-128.00;-1.00;-1.00;105578;1253;1004364;-78
2024/01/30 05:17:12;;;;;;;46.80;23.40;;;;;;;-128.00;-1.00;-1.00;105584;1253;1004896;-78
2024/01/30 05:19:39;;;;;;;50.20;22.30;;;;;;;-128.00;-1.00;-1.00;103907;1253;1003799;-78
2024/01/30 05:22:05;;;;;;;45.40;28.30;;;;;;;-128.00;-1.00;-1.00;103282;1253;1005417;-78
2024/01/30 05:24:33;;;;;;;49.00;24.50;;;;;;;-128.00;-1.00;-1.00;103203;1253;1003998;-78
2024/01/30 05:26:59;;;;;;;50.20;24.60;;;;;;;-128.00;-1.00;-1.00;103264;1253;1004609;-78
2024/01/30 05:29:27;;;;;;;54.20;25.10;;;;;;;-128.00;-1.00;-1.00;103257;1253;1005016;-78
2024/01/30 05:31:53;;;;;;;43.80;23.40;;;;;;;-128.00;-1.00;-1.00;103240;1253;1005001;-78
2024/01/30 05:34:20;;;;;;;39.90;21.90;;;;;;;-128.00;-1.00;-1.00;103226;1253;1004003;-78
2024/01/30 05:36:46;;;;;;;46.30;22.60;;;;;;;-128.00;-1.00;-1.00;104761;1253;1005389;-78
2024/01/30 05:39:13;;;;;;;51.40;24.60;;;;;;;-128.00;-1.00;-1.00;105587;1253;1004433;-78
2024/01/30 05:41:39;;;;;;;44.40;21.70;;;;;;;-128.00;-1.00;-1.00;105604;1253;1005463;-78
2024/01/30 05:44:06;;;;;;;45.50;21.00;;;;;;;-128.00;-1.00;-1.00;105590;1253;1005092;-78
2024/01/30 05:46:33;;;;;;;42.20;23.50;;;;;;;-128.00;-1.00;-1.00;104742;1253;1004477;-78
2024/01/30 05:49:00;;;;;;;43.60;23.40;;;;;;;-128.00;-1.00;-1.00;103201;1253;1004185;-78
2024/01/30 05:51:27;;;;;;;42.30;23.80;;;;;;;-128.00;-1.00;-1.00;103167;1253;1004129;-79
2024/01/30 05:53:54;;;;;;;49.30;24.10;;;;;;;-128.00;-1.00;-1.00;103206;1253;1004882;-78
2024/01/30 05:56:21;;;;;;;39.90;19.90;;;;;;;-128.00;-1.00;-1.00;103199;1253;1004851;-78
2024/01/30 05:58:47;;;;;;;41.50;23.30;;;;;;;-128.00;-1.00;-1.00;103158;1254;1004828;-78
2024/01/30 06:01:14;;;;;;;39.80;20.20;;;;;;;-128.00;-1.00;-1.00;103222;1254;1003675;-79
2024/01/30 06:03:40;;;;;;;42.30;22.20;;;;;;;-128.00;-1.00;-1.00;103333;1253;1003528;-78
2024/01/30 06:06:07;;;;;;;40.30;18.90;;;;;;;-128.00;-1.00;-1.00;103371;1253;1004862;-78
2024/01/30 06:08:33;;;;;;;41.60;20.50;;;;;;;-128.00;-1.00;-1.00;103243;1253;1004152;-79
2024/01/30 06:11:00;;;;;;;36.30;19.50;;;;;;;-128.00;-1.00;-1.00;104302;1253;1004438;-78
2024/01/30 06:13:27;;;;;;;38.80;21.10;;;;;;;-128.00;-1.00;-1.00;103265;1256;1004688;-78
2024/01/30 06:15:54;;;;;;;43.60;21.40;;;;;;;-128.00;-1.00;-1.00;103197;1253;1004037;-79
2024/01/30 06:18:20;;;;;;;41.20;19.30;;;;;;;-128.00;-1.00;-1.00;103425;1253;1003852;-79
2024/01/30 06:20:47;;;;;;;40.70;19.70;;;;;;;-128.00;-1.00;-1.00;103610;1253;1005738;-78
2024/01/30 06:23:14;;;;;;;44.30;22.40;;;;;;;-128.00;-1.00;-1.00;103400;1257;1005189;-79
2024/01/30 06:25:41;;;;;;;39.00;19.70;;;;;;;-128.00;-1.00;-1.00;104613;1253;1004314;-78
2024/01/30 06:28:07;;;;;;;43.10;19.50;;;;;;;-128.00;-1.00;-1.00;103874;1253;1003982;-79
2024/01/30 06:30:34;;;;;;;47.00;22.10;;;;;;;-128.00;-1.00;-1.00;103368;1253;1005076;-79
2024/01/30 06:33:01;;;;;;;51.50;25.90;;;;;;;-128.00;-1.00;-1.00;103427;1253;1005354;-79
2024/01/30 06:35:28;;;;;;;48.60;25.40;;;;;;;-128.00;-1.00;-1.00;103249;1254;1004551;-78
2024/01/30 06:37:55;;;;;;;48.30;21.80;;;;;;;-128.00;-1.00;-1.00;103323;1253;1004844;-78
2024/01/30 06:40:22;;;;;;;41.40;21.60;;;;;;;-128.00;-1.00;-1.00;105571;1253;1005067;-78
2024/01/30 06:42:48;;;;;;;35.30;20.40;;;;;;;-128.00;-1.00;-1.00;105565;1252;1003949;-78
2024/01/30 06:45:15;;;;;;;31.70;17.80;;;;;;;-128.00;-1.00;-1.00;105592;1253;1003829;-79
2024/01/30 06:47:42;;;;;;;45.30;22.10;;;;;;;-128.00;-1.00;-1.00;105579;1253;1003806;-78
2024/01/30 06:50:08;;;;;;;44.30;24.60;;;;;;;-128.00;-1.00;-1.00;105419;1253;1003908;-78
2024/01/30 06:52:35;;;;;;;50.50;25.30;;;;;;;-128.00;-1.00;-1.00;105453;1253;1004758;-78
2024/01/30 06:55:02;;;;;;;49.00;26.40;;;;;;;-128.00;-1.00;-1.00;105534;1253;1004051;-78
2024/01/30 06:57:30;;;;;;;54.30;27.90;;;;;;;-128.00;-1.00;-1.00;105564;1253;1004254;-79
2024/01/30 06:59:57;;;;;;;46.20;25.00;;;;;;;-128.00;-1.00;-1.00;105530;1253;1003563;-78
2024/01/30 07:02:23;;;;;;;56.30;24.90;;;;;;;-128.00;-1.00;-1.00;105493;1255;1003706;-78
2024/01/30 07:04:50;;;;;;;47.40;24.50;;;;;;;-128.00;-1.00;-1.00;105468;1253;1004688;-78
2024/01/30 07:07:17;;;;;;;53.30;27.90;;;;;;;-128.00;-1.00;-1.00;105518;1253;1004529;-79
2024/01/30 07:09:43;;;;;;;48.30;28.30;;;;;;;-128.00;-1.00;-1.00;105434;1253;1004023;-78
2024/01/30 07:12:10;;;;;;;53.10;29.60;;;;;;;-128.00;-1.00;-1.00;105460;1253;1005517;-78
2024/01/30 07:14:36;;;;;;;51.30;28.70;;;;;;;-128.00;-1.00;-1.00;105441;1253;1003778;-78
2024/01/30 07:17:03;;;;;;;56.40;29.70;;;;;;;-128.00;-1.00;-1.00;105528;1253;1004812;-78
2024/01/30 07:19:30;;;;;;;49.60;27.40;;;;;;;-128.00;-1.00;-1.00;105479;1257;1004258;-78
2024/01/30 07:21:56;;;;;;;52.40;28.50;;;;;;;-128.00;-1.00;-1.00;105453;1253;1004756;-78
2024/01/30 07:24:23;;;;;;;56.00;29.50;;;;;;;-128.00;-1.00;-1.00;105589;1253;1003909;-79
2024/01/30 07:26:50;;;;;;;42.00;26.00;;;;;;;-128.00;-1.00;-1.00;105505;1252;1003407;-78
2024/01/30 07:29:16;;;;;;;73.00;40.00;;;;;;;-128.00;-1.00;-1.00;105545;1254;1004432;-79
2024/01/30 07:31:43;;;;;;;93.50;49.70;;;;;;;-128.00;-1.00;-1.00;105542;1253;1004832;-79
2024/01/30 07:34:10;;;;;;;111.00;61.50;;;;;;;-128.00;-1.00;-1.00;105504;1253;1003671;-79
2024/01/30 07:36:36;;;;;;;48.70;27.90;;;;;;;-128.00;-1.00;-1.00;105487;1253;1004809;-79
2024/01/30 07:39:03;;;;;;;41.60;22.80;;;;;;;-128.00;-1.00;-1.00;105445;1253;1004521;-80
2024/01/30 07:41:30;;;;;;;174.00;74.20;;;;;;;-128.00;-1.00;-1.00;105512;1252;1004392;-79
2024/01/30 07:43:57;;;;;;;155.50;73.80;;;;;;;-128.00;-1.00;-1.00;105353;1254;1003971;-80
2024/01/30 07:46:24;;;;;;;141.90;66.10;;;;;;;-128.00;-1.00;-1.00;105542;1253;1004507;-79
2024/01/30 07:48:50;;;;;;;125.90;63.70;;;;;;;-128.00;-1.00;-1.00;105567;1253;1004333;-80
2024/01/30 07:51:17;;;;;;;93.00;47.90;;;;;;;-128.00;-1.00;-1.00;105487;1253;1004014;-79
2024/01/30 07:53:44;;;;;;;86.00;48.90;;;;;;;-128.00;-1.00;-1.00;105578;1253;1003691;-78
2024/01/30 07:56:11;;;;;;;61.50;32.50;;;;;;;-128.00;-1.00;-1.00;105513;1253;1005050;-78
2024/01/30 07:58:38;;;;;;;55.10;32.20;;;;;;;-128.00;-1.00;-1.00;105509;1253;1004162;-79
2024/01/30 08:01:04;;;;;;;41.40;23.40;;;;;;;-128.00;-1.00;-1.00;105489;1253;1004288;-78
2024/01/30 08:03:31;;;;;;;42.20;22.70;;;;;;;-128.00;-1.00;-1.00;105470;1254;1003845;-78
2024/01/30 08:05:57;;;;;;;46.60;28.10;;;;;;;-128.00;-1.00;-1.00;105488;1253;1003557;-78
2024/01/30 08:08:25;;;;;;;39.20;22.50;;;;;;;-128.00;-1.00;-1.00;105581;1253;1003816;-78
2024/01/30 08:10:53;;;;;;;35.90;20.10;;;;;;;-128.00;-1.00;-1.00;105508;1252;1003981;-79
2024/01/30 08:13:19;;;;;;;54.10;24.70;;;;;;;-128.00;-1.00;-1.00;105479;1253;1004052;-79
2024/01/30 08:15:46;;;;;;;48.80;22.80;;;;;;;-128.00;-1.00;-1.00;105609;1254;1004148;-80
2024/01/30 08:18:12;;;;;;;42.10;21.60;;;;;;;-128.00;-1.00;-1.00;105558;1253;1005210;-79
2024/01/30 08:20:39;;;;;;;44.70;23.10;;;;;;;-128.00;-1.00;-1.00;105526;1253;1003959;-79
2024/01/30 08:23:06;;;;;;;46.60;24.40;;;;;;;-128.00;-1.00;-1.00;105574;1253;1003363;-79
2024/01/30 08:25:32;;;;;;;80.80;39.80;;;;;;;-128.00;-1.00;-1.00;105486;1253;1005073;-78
2024/01/30 08:27:59;;;;;;;72.00;38.60;;;;;;;-128.00;-1.00;-1.00;105532;1253;1004854;-78
2024/01/30 08:30:26;;;;;;;68.50;34.00;;;;;;;-128.00;-1.00;-1.00;105548;1253;1004531;-78
2024/01/30 08:32:53;;;;;;;55.80;31.80;;;;;;;-128.00;-1.00;-1.00;105557;1253;1004146;-78
2024/01/30 08:35:19;;;;;;;56.00;34.80;;;;;;;-128.00;-1.00;-1.00;105501;1253;1004495;-79
2024/01/30 08:37:46;;;;;;;65.60;33.50;;;;;;;-128.00;-1.00;-1.00;105599;1253;1003964;-79
2024/01/30 08:40:13;;;;;;;66.30;32.60;;;;;;;-128.00;-1.00;-1.00;105586;1253;1003759;-79
2024/01/30 08:42:39;;;;;;;67.10;33.00;;;;;;;-128.00;-1.00;-1.00;105537;1254;1003978;-79
2024/01/30 08:45:06;;;;;;;75.00;31.00;;;;;;;-128.00;-1.00;-1.00;105498;1254;1003656;-79
2024/01/30 08:47:33;;;;;;;62.80;31.00;;;;;;;-128.00;-1.00;-1.00;105498;1254;1004616;-79
2024/01/30 08:49:59;;;;;;;67.10;32.00;;;;;;;-128.00;-1.00;-1.00;105472;1254;1004686;-78
2024/01/30 08:52:26;;;;;;;59.10;30.30;;;;;;;-128.00;-1.00;-1.00;105513;1254;1004025;-78
2024/01/30 08:54:53;;;;;;;54.50;27.90;;;;;;;-128.00;-1.00;-1.00;105470;1254;1003548;-78
2024/01/30 08:57:19;;;;;;;56.40;30.40;;;;;;;-128.00;-1.00;-1.00;105504;1254;1004401;-78
2024/01/30 08:59:46;;;;;;;56.30;33.30;;;;;;;-128.00;-1.00;-1.00;105449;1254;1003767;-78
2024/01/30 09:02:15;;;;;;;51.70;28.00;;;;;;;-128.00;-1.00;-1.00;105412;1254;1004471;-79
2024/01/30 09:04:42;;;;;;;54.20;28.90;;;;;;;-128.00;-1.00;-1.00;103903;1256;1044956;-78
2024/01/30 09:07:09;;;;;;;47.30;25.20;;;;;;;-128.00;-1.00;-1.00;103176;1255;1004856;-79
2024/01/30 09:09:39;;;;;;;54.50;28.30;;;;;;;-128.00;-1.00;-1.00;103208;1255;1004954;-79
2024/01/30 09:12:09;;;;;;;55.80;29.80;;;;;;;-128.00;-1.00;-1.00;103411;1255;1057763;-78
2024/01/30 09:14:36;;;;;;;50.20;27.70;;;;;;;-128.00;-1.00;-1.00;103194;1255;1058204;-79
2024/01/30 09:17:03;;;;;;;52.50;28.50;;;;;;;-128.00;-1.00;-1.00;103222;1254;1004482;-79
2024/01/30 09:19:30;;;;;;;52.20;29.20;;;;;;;-128.00;-1.00;-1.00;103308;1255;1004579;-79
2024/01/30 09:21:57;;;;;;;52.00;24.90;;;;;;;-128.00;-1.00;-1.00;103183;1256;1004373;-79
2024/01/30 09:24:23;;;;;;;47.20;25.50;;;;;;;-128.00;-1.00;-1.00;103161;1255;1004627;-79
2024/01/30 09:26:50;;;;;;;43.10;25.20;;;;;;;-128.00;-1.00;-1.00;103172;1257;1004330;-81
2024/01/30 09:29:16;;;;;;;39.00;21.00;;;;;;;-128.00;-1.00;-1.00;103304;1254;1003890;-78
2024/01/30 09:31:44;;;;;;;43.30;22.40;;;;;;;-128.00;-1.00;-1.00;103102;1256;1005354;-78
2024/01/30 09:34:12;;;;;;;35.90;19.10;;;;;;;-128.00;-1.00;-1.00;103392;1254;1004166;-79
2024/01/30 09:36:39;;;;;;;34.10;19.60;;;;;;;-128.00;-1.00;-1.00;103236;1254;1004122;-79
2024/01/30 09:39:06;;;;;;;31.50;18.30;;;;;;;-128.00;-1.00;-1.00;103272;1255;1004117;-79
2024/01/30 09:41:34;;;;;;;35.20;19.20;;;;;;;-128.00;-1.00;-1.00;103146;1254;1005052;-80
2024/01/30 09:44:00;;;;;;;33.80;19.50;;;;;;;-128.00;-1.00;-1.00;103095;1253;1003791;-79
2024/01/30 09:46:27;;;;;;;36.40;18.00;;;;;;;-128.00;-1.00;-1.00;103267;1253;1004967;-79
2024/01/30 09:48:55;;;;;;;36.60;19.50;;;;;;;-128.00;-1.00;-1.00;103270;1253;1004656;-79
2024/01/30 09:51:22;;;;;;;36.60;19.20;;;;;;;-128.00;-1.00;-1.00;103234;1253;1004346;-79
2024/01/30 09:53:49;;;;;;;43.70;24.30;;;;;;;-128.00;-1.00;-1.00;103290;1253;1005712;-79
2024/01/30 09:56:16;;;;;;;42.80;23.70;;;;;;;-128.00;-1.00;-1.00;103267;1253;1004909;-79
2024/01/30 09:58:43;;;;;;;40.40;20.60;;;;;;;-128.00;-1.00;-1.00;103235;1254;1004232;-79
2024/01/30 10:01:10;;;;;;;66.80;34.20;;;;;;;-128.00;-1.00;-1.00;103267;1253;1005376;-79
2024/01/30 10:03:37;;;;;;;37.80;20.90;;;;;;;-128.00;-1.00;-1.00;103270;1253;1004165;-79
2024/01/30 10:06:04;;;;;;;39.60;20.70;;;;;;;-128.00;-1.00;-1.00;103153;1253;1004417;-79
2024/01/30 10:08:30;;;;;;;42.70;19.00;;;;;;;-128.00;-1.00;-1.00;103255;1253;1005297;-79
2024/01/30 10:10:57;;;;;;;35.90;16.80;;;;;;;-128.00;-1.00;-1.00;103503;1254;1004152;-79
2024/01/30 10:13:23;;;;;;;31.40;16.00;;;;;;;-128.00;-1.00;-1.00;103260;1253;1004424;-79
2024/01/30 10:15:52;;;;;;;23.90;13.30;;;;;;;-128.00;-1.00;-1.00;103201;1253;1003957;-79
2024/01/30 10:18:18;;;;;;;26.40;15.10;;;;;;;-128.00;-1.00;-1.00;103211;1253;1004992;-80
2024/01/30 10:20:45;;;;;;;33.40;14.90;;;;;;;-128.00;-1.00;-1.00;103359;1254;1004646;-79
2024/01/30 10:23:12;;;;;;;27.50;14.10;;;;;;;-128.00;-1.00;-1.00;103128;1253;1004905;-79
2024/01/30 10:25:38;;;;;;;27.00;13.70;;;;;;;-128.00;-1.00;-1.00;103432;1253;1004128;-79
2024/01/30 10:28:05;;;;;;;37.70;17.20;;;;;;;-128.00;-1.00;-1.00;103231;1256;1006257;-79
2024/01/30 10:30:32;;;;;;;37.30;16.10;;;;;;;-128.00;-1.00;-1.00;103329;1253;1005363;-79
2024/01/30 10:32:58;;;;;;;36.90;18.50;;;;;;;-128.00;-1.00;-1.00;103289;1253;1005434;-79
2024/01/30 10:35:25;;;;;;;35.60;16.70;;;;;;;-128.00;-1.00;-1.00;103286;1253;1004178;-79
2024/01/30 10:37:52;;;;;;;37.00;17.70;;;;;;;-128.00;-1.00;-1.00;103297;1254;1004818;-79
2024/01/30 10:40:18;;;;;;;26.70;12.50;;;;;;;-128.00;-1.00;-1.00;103475;1254;1004616;-79
2024/01/30 10:42:45;;;;;;;76.10;27.20;;;;;;;-128.00;-1.00;-1.00;103298;1253;1005611;-79
2024/01/30 10:45:12;;;;;;;32.30;15.60;;;;;;;-128.00;-1.00;-1.00;103332;1253;1004798;-79
2024/01/30 10:47:40;;;;;;;44.90;19.00;;;;;;;-128.00;-1.00;-1.00;103392;1253;1004416;-80
2024/01/30 10:50:10;;;;;;;72.20;28.00;;;;;;;-128.00;-1.00;-1.00;103400;1253;1005413;-79
2024/01/30 10:52:37;;;;;;;52.80;21.10;;;;;;;-128.00;-1.00;-1.00;103203;1253;1061066;-79
2024/01/30 10:55:05;;;;;;;32.70;13.60;;;;;;;-128.00;-1.00;-1.00;103221;1253;1004397;-79
2024/01/30 10:57:33;;;;;;;64.70;26.50;;;;;;;-128.00;-1.00;-1.00;103574;1253;1047415;-80